Aeroporto :
LOGIN :

Iscrizione | Disclaimer

   EN    FR    IT 

 










Sommario :    VFR   VFR Marginale   IFR   IFR Intensivo   IFR Molto Intensivo
Visibilità : 
Base nubi : 
>= 8 km
>= 3000ft
5 / 8 km
1000 / 3000 ft
1500m / 5 km
500 / 1000 ft
800 / 1500m
200 / 500 ft
< 800m
< 200 ft
Simboli :   Temporali  Nebbia  Neve Forte  Precipitazioni Forti  Vento > 20 kt
SIGMETs :   Varie  Temporali  Ghiacco  Turbolenza  Onda orograficha  Ceneri Vulcaniche






- Altitudine del aeroporto : 1416 ft
- Codice IATA : ZRH


LSZH - Zurich

ULTIMO METAR :
  • 190420Z VRB01KT CAVOK 16/15 Q1014 NOSIG

METARs OBSOLETI :
  • 190350Z VRB01KT CAVOK 16/15 Q1014 NOSIG
  • 190320Z AUTO VRB01KT CAVOK 16/15 Q1014 NOSIG
  • 190250Z AUTO 02001KT 9999 1100S R14/P2000N R16/P2000N R28/P2000N R34/P2000N NCD 16/15 Q1014 NOSIG
  • 190220Z AUTO VRB01KT CAVOK 16/15 Q1014 NOSIG
  • 190150Z AUTO VRB01KT CAVOK 17/15 Q1014 NOSIG
  • 190120Z AUTO VRB02KT CAVOK 17/15 Q1014 NOSIG
  • 190050Z AUTO 03004KT CAVOK 17/16 Q1014 NOSIG
  • 190020Z AUTO 16002KT CAVOK 18/16 Q1014 NOSIG
  • 182350Z AUTO VRB01KT CAVOK 18/16 Q1014 NOSIG

TAF TAF LSZH
Valido dal 19 a 03 ore il 20 a 09 ore UTC


190225Z 1903/2009 32002KT CAVOK TX29/1915Z TN16/1904Z TN17/2004Z
PROB40
TEMPO 1912/1917 30008KT 9999 FEW070TCU
PROB30
TEMPO 1915/1920 21015G30KT TSRA SCT050CB
PROB30 2001/2008 9999 BKN010
ATIS : +41 43 816 2295 (DEP) +41 43 816 2294 (ARR)



MetMap, La meteo Aeronautica in un colpo d'occhio ! - Copyright ORBIFLY Dicembre 2007 - Disclaimer

ORBIFLY MET'MAP TEAM :

Programmazione e sviluppo : Alexandra Zaïnal
Concezione : Baudouin d'Aumeries
Supporto tecnico e logistico : Manuel Goepfert
Aiuto : Marc-Olivier Méhu
Aiuto per la traduzione : Arnaldo La Scala




FONTI E CREDITI :

   NOAA